Terminal Aerodrome Forecast
Issued by NWS

Home | Current Version | Previous Version | Text Only | Print | Product List | Glossary Off
Versions: 1 2 3 4 5 6 7 8 9 10 11 12 13 14 15 16 17 18 19 20

000
FTUS43 KMPX 301743
TAFAXN
TAF
KAXN 301743Z 3018/3118 17012KT P6SM OVC009
     FM302000 18010KT P6SM BKN012
     FM302200 26007KT P6SM SCT015
     FM310800 35009KT P6SM OVC010=

USA.gov is the U.S. government's official web portal to all federal, state and local government web resources and services.